sensor_id;sensor_type;location;lat;lon;timestamp;pressure;altitude;pressure_sealevel;temperature
70415;BMP280;57837;52.064;113.478;2023-02-26T00:00:27;93884.69;;;-13.47
70415;BMP280;57837;52.064;113.478;2023-02-26T00:03:31;93894.72;;;-13.57
70415;BMP280;57837;52.064;113.478;2023-02-26T00:06:37;93873.66;;;-13.65
70415;BMP280;57837;52.064;113.478;2023-02-26T00:09:41;93871.06;;;-13.78
70415;BMP280;57837;52.064;113.478;2023-02-26T00:12:45;93850.94;;;-13.58
70415;BMP280;57837;52.064;113.478;2023-02-26T00:15:51;93844.09;;;-13.23
70415;BMP280;57837;52.064;113.478;2023-02-26T00:19:00;93849.53;;;-12.84
70415;BMP280;57837;52.064;113.478;2023-02-26T00:22:04;93855.94;;;-12.59
70415;BMP280;57837;52.064;113.478;2023-02-26T00:25:08;93858.47;;;-12.45
70415;BMP280;57837;52.064;113.478;2023-02-26T00:28:12;93859.25;;;-12.31
70415;BMP280;57837;52.064;113.478;2023-02-26T00:31:17;93848.31;;;-12.16
70415;BMP280;57837;52.064;113.478;2023-02-26T00:34:22;93844.53;;;-12.13
70415;BMP280;57837;52.064;113.478;2023-02-26T00:40:48;93860.09;;;-11.62
70415;BMP280;57837;52.064;113.478;2023-02-26T00:43:53;93854.16;;;-11.24
70415;BMP280;57837;52.064;113.478;2023-02-26T00:47:07;93864.78;;;-10.60
70415;BMP280;57837;52.064;113.478;2023-02-26T00:50:20;93876.16;;;-9.61
70415;BMP280;57837;52.064;113.478;2023-02-26T00:56:52;93874.75;;;-8.93
70415;BMP280;57837;52.064;113.478;2023-02-26T00:59:55;93881.84;;;-8.60
70415;BMP280;57837;52.064;113.478;2023-02-26T01:02:58;93869.06;;;-7.83
70415;BMP280;57837;52.064;113.478;2023-02-26T01:06:02;93863.47;;;-7.29
70415;BMP280;57837;52.064;113.478;2023-02-26T01:12:11;93872.72;;;-6.34
70415;BMP280;57837;52.064;113.478;2023-02-26T01:15:15;93878.66;;;-6.51
70415;BMP280;57837;52.064;113.478;2023-02-26T01:18:23;93864.84;;;-6.57
70415;BMP280;57837;52.064;113.478;2023-02-26T01:21:34;93857.66;;;-5.98
70415;BMP280;57837;52.064;113.478;2023-02-26T01:24:41;93849.22;;;-5.41
70415;BMP280;57837;52.064;113.478;2023-02-26T01:27:45;93845.25;;;-5.54
70415;BMP280;57837;52.064;113.478;2023-02-26T01:30:50;93845.00;;;-5.37
70415;BMP280;57837;52.064;113.478;2023-02-26T01:34:09;93841.50;;;-5.20
70415;BMP280;57837;52.064;113.478;2023-02-26T01:47:20;93824.00;;;-4.38
70415;BMP280;57837;52.064;113.478;2023-02-26T01:50:25;93831.69;;;-4.34
70415;BMP280;57837;52.064;113.478;2023-02-26T01:53:32;93833.06;;;-4.52
70415;BMP280;57837;52.064;113.478;2023-02-26T01:56:37;93820.13;;;-4.51
70415;BMP280;57837;52.064;113.478;2023-02-26T01:59:44;93822.47;;;-4.58
70415;BMP280;57837;52.064;113.478;2023-02-26T02:02:49;93819.31;;;-4.71
70415;BMP280;57837;52.064;113.478;2023-02-26T02:05:57;93821.41;;;-4.57
70415;BMP280;57837;52.064;113.478;2023-02-26T02:09:04;93818.78;;;-4.61
70415;BMP280;57837;52.064;113.478;2023-02-26T02:19:23;93791.22;;;-3.87
70415;BMP280;57837;52.064;113.478;2023-02-26T02:29:45;93797.69;;;-3.70
70415;BMP280;57837;52.064;113.478;2023-02-26T02:33:14;93796.19;;;-3.52
70415;BMP280;57837;52.064;113.478;2023-02-26T02:39:38;93790.06;;;-3.12
70415;BMP280;57837;52.064;113.478;2023-02-26T02:42:54;93783.81;;;-3.18
70415;BMP280;57837;52.064;113.478;2023-02-26T02:46:04;93787.66;;;-3.05
70415;BMP280;57837;52.064;113.478;2023-02-26T02:49:17;93767.38;;;-2.86
70415;BMP280;57837;52.064;113.478;2023-02-26T02:52:28;93755.28;;;-2.47
70415;BMP280;57837;52.064;113.478;2023-02-26T02:55:56;93753.19;;;-1.85
70415;BMP280;57837;52.064;113.478;2023-02-26T02:59:32;93750.50;;;-1.28
70415;BMP280;57837;52.064;113.478;2023-02-26T03:02:54;93752.56;;;-1.01
70415;BMP280;57837;52.064;113.478;2023-02-26T03:06:00;93751.47;;;-0.48
70415;BMP280;57837;52.064;113.478;2023-02-26T03:09:06;93746.91;;;-0.76
70415;BMP280;57837;52.064;113.478;2023-02-26T03:12:10;93753.44;;;-0.82
70415;BMP280;57837;52.064;113.478;2023-02-26T03:15:25;93738.06;;;-1.00
70415;BMP280;57837;52.064;113.478;2023-02-26T03:25:48;93713.88;;;-0.83
70415;BMP280;57837;52.064;113.478;2023-02-26T03:29:05;93697.03;;;-0.40
70415;BMP280;57837;52.064;113.478;2023-02-26T03:32:31;93690.03;;;0.47
70415;BMP280;57837;52.064;113.478;2023-02-26T03:35:59;93674.41;;;0.66
70415;BMP280;57837;52.064;113.478;2023-02-26T03:42:33;93679.44;;;0.06
70415;BMP280;57837;52.064;113.478;2023-02-26T03:45:42;93670.31;;;-0.09
70415;BMP280;57837;52.064;113.478;2023-02-26T03:48:50;93663.13;;;0.28
70415;BMP280;57837;52.064;113.478;2023-02-26T03:51:55;93655.13;;;0.55
70415;BMP280;57837;52.064;113.478;2023-02-26T03:59:17;93613.25;;;1.09
70415;BMP280;57837;52.064;113.478;2023-02-26T04:02:52;93590.25;;;1.27
70415;BMP280;57837;52.064;113.478;2023-02-26T04:05:58;93598.34;;;0.93
70415;BMP280;57837;52.064;113.478;2023-02-26T04:09:03;93584.19;;;0.75
70415;BMP280;57837;52.064;113.478;2023-02-26T04:12:10;93571.09;;;0.62
70415;BMP280;57837;52.064;113.478;2023-02-26T04:15:17;93566.75;;;0.48
70415;BMP280;57837;52.064;113.478;2023-02-26T04:18:20;93557.66;;;0.47
70415;BMP280;57837;52.064;113.478;2023-02-26T04:21:23;93562.41;;;0.52
70415;BMP280;57837;52.064;113.478;2023-02-26T04:24:27;93559.09;;;0.66
70415;BMP280;57837;52.064;113.478;2023-02-26T04:27:34;93555.47;;;0.67
70415;BMP280;57837;52.064;113.478;2023-02-26T04:30:39;93563.44;;;0.76
70415;BMP280;57837;52.064;113.478;2023-02-26T04:33:44;93535.44;;;0.80
70415;BMP280;57837;52.064;113.478;2023-02-26T04:36:47;93528.16;;;0.75
70415;BMP280;57837;52.064;113.478;2023-02-26T04:39:51;93522.28;;;0.85
70415;BMP280;57837;52.064;113.478;2023-02-26T04:42:54;93529.94;;;0.88
70415;BMP280;57837;52.064;113.478;2023-02-26T04:46:00;93527.72;;;1.08
70415;BMP280;57837;52.064;113.478;2023-02-26T04:49:05;93521.84;;;1.11
70415;BMP280;57837;52.064;113.478;2023-02-26T04:52:09;93521.84;;;1.11
70415;BMP280;57837;52.064;113.478;2023-02-26T04:55:13;93516.00;;;1.18
70415;BMP280;57837;52.064;113.478;2023-02-26T04:58:18;93517.44;;;1.22
70415;BMP280;57837;52.064;113.478;2023-02-26T05:01:21;93513.03;;;1.30
70415;BMP280;57837;52.064;113.478;2023-02-26T05:04:24;93506.34;;;1.50
70415;BMP280;57837;52.064;113.478;2023-02-26T05:07:32;93520.50;;;1.62
70415;BMP280;57837;52.064;113.478;2023-02-26T05:10:37;93519.34;;;1.70
70415;BMP280;57837;52.064;113.478;2023-02-26T05:13:40;93507.56;;;1.87
70415;BMP280;57837;52.064;113.478;2023-02-26T05:16:43;93502.31;;;2.04
70415;BMP280;57837;52.064;113.478;2023-02-26T05:19:48;93492.47;;;2.06
70415;BMP280;57837;52.064;113.478;2023-02-26T05:22:51;93487.38;;;2.03
70415;BMP280;57837;52.064;113.478;2023-02-26T05:25:55;93480.00;;;2.16
70415;BMP280;57837;52.064;113.478;2023-02-26T05:28:59;93478.09;;;2.23
70415;BMP280;57837;52.064;113.478;2023-02-26T05:32:02;93466.81;;;2.55
70415;BMP280;57837;52.064;113.478;2023-02-26T05:35:06;93467.88;;;2.91
70415;BMP280;57837;52.064;113.478;2023-02-26T05:38:09;93464.31;;;3.12
70415;BMP280;57837;52.064;113.478;2023-02-26T05:41:13;93457.31;;;3.16
70415;BMP280;57837;52.064;113.478;2023-02-26T05:44:16;93456.75;;;3.01
70415;BMP280;57837;52.064;113.478;2023-02-26T05:47:20;93455.47;;;2.90
70415;BMP280;57837;52.064;113.478;2023-02-26T05:50:23;93452.16;;;2.93
70415;BMP280;57837;52.064;113.478;2023-02-26T05:53:26;93446.59;;;2.98
70415;BMP280;57837;52.064;113.478;2023-02-26T05:56:29;93434.06;;;3.07
70415;BMP280;57837;52.064;113.478;2023-02-26T05:59:32;93431.00;;;3.19
70415;BMP280;57837;52.064;113.478;2023-02-26T06:02:35;93437.44;;;3.27
70415;BMP280;57837;52.064;113.478;2023-02-26T06:05:39;93430.75;;;3.33
70415;BMP280;57837;52.064;113.478;2023-02-26T06:08:42;93431.38;;;3.41
70415;BMP280;57837;52.064;113.478;2023-02-26T06:11:45;93438.25;;;3.47
70415;BMP280;57837;52.064;113.478;2023-02-26T06:14:49;93431.34;;;3.44
70415;BMP280;57837;52.064;113.478;2023-02-26T06:17:52;93425.50;;;3.44
70415;BMP280;57837;52.064;113.478;2023-02-26T06:20:56;93427.44;;;3.60
70415;BMP280;57837;52.064;113.478;2023-02-26T06:24:00;93415.09;;;3.78
70415;BMP280;57837;52.064;113.478;2023-02-26T06:27:03;93417.66;;;3.98
70415;BMP280;57837;52.064;113.478;2023-02-26T06:30:07;93421.16;;;4.07
70415;BMP280;57837;52.064;113.478;2023-02-26T06:33:11;93423.91;;;4.16
70415;BMP280;57837;52.064;113.478;2023-02-26T06:36:15;93413.41;;;4.31
70415;BMP280;57837;52.064;113.478;2023-02-26T06:39:19;93404.00;;;4.44
70415;BMP280;57837;52.064;113.478;2023-02-26T06:42:23;93404.78;;;4.61
70415;BMP280;57837;52.064;113.478;2023-02-26T06:45:27;93385.00;;;4.77
70415;BMP280;57837;52.064;113.478;2023-02-26T06:48:30;93377.31;;;4.93
70415;BMP280;57837;52.064;113.478;2023-02-26T06:51:34;93372.91;;;5.10
70415;BMP280;57837;52.064;113.478;2023-02-26T06:54:38;93375.34;;;5.17
70415;BMP280;57837;52.064;113.478;2023-02-26T06:57:42;93368.81;;;5.29
70415;BMP280;57837;52.064;113.478;2023-02-26T07:00:46;93363.13;;;5.38
70415;BMP280;57837;52.064;113.478;2023-02-26T07:03:49;93363.66;;;5.45
70415;BMP280;57837;52.064;113.478;2023-02-26T07:06:54;93352.19;;;5.50
70415;BMP280;57837;52.064;113.478;2023-02-26T07:09:56;93358.56;;;5.58
70415;BMP280;57837;52.064;113.478;2023-02-26T07:13:01;93353.19;;;5.68
70415;BMP280;57837;52.064;113.478;2023-02-26T07:16:04;93359.47;;;5.80
70415;BMP280;57837;52.064;113.478;2023-02-26T07:19:08;93369.47;;;5.91
70415;BMP280;57837;52.064;113.478;2023-02-26T07:22:11;93369.63;;;6.00
70415;BMP280;57837;52.064;113.478;2023-02-26T07:25:15;93365.63;;;6.12
70415;BMP280;57837;52.064;113.478;2023-02-26T07:28:18;93370.78;;;6.24
70415;BMP280;57837;52.064;113.478;2023-02-26T07:31:23;93367.50;;;6.36
70415;BMP280;57837;52.064;113.478;2023-02-26T07:34:26;93361.88;;;6.41
70415;BMP280;57837;52.064;113.478;2023-02-26T07:37:29;93370.50;;;6.48
70415;BMP280;57837;52.064;113.478;2023-02-26T07:40:32;93358.44;;;6.57
70415;BMP280;57837;52.064;113.478;2023-02-26T07:43:36;93360.81;;;6.64
70415;BMP280;57837;52.064;113.478;2023-02-26T07:46:40;93366.16;;;6.70
70415;BMP280;57837;52.064;113.478;2023-02-26T07:49:44;93357.53;;;6.76
70415;BMP280;57837;52.064;113.478;2023-02-26T07:52:48;93367.19;;;6.72
70415;BMP280;57837;52.064;113.478;2023-02-26T07:55:51;93367.00;;;6.67
70415;BMP280;57837;52.064;113.478;2023-02-26T07:58:55;93375.31;;;6.58
70415;BMP280;57837;52.064;113.478;2023-02-26T08:01:58;93365.03;;;6.58
70415;BMP280;57837;52.064;113.478;2023-02-26T08:05:01;93359.69;;;6.65
70415;BMP280;57837;52.064;113.478;2023-02-26T08:08:04;93349.59;;;6.71
70415;BMP280;57837;52.064;113.478;2023-02-26T08:11:07;93333.75;;;6.72
70415;BMP280;57837;52.064;113.478;2023-02-26T08:14:11;93342.91;;;6.73
70415;BMP280;57837;52.064;113.478;2023-02-26T08:17:14;93340.97;;;6.77
70415;BMP280;57837;52.064;113.478;2023-02-26T08:20:17;93341.19;;;6.83
70415;BMP280;57837;52.064;113.478;2023-02-26T08:23:20;93347.31;;;6.86
70415;BMP280;57837;52.064;113.478;2023-02-26T08:26:23;93333.47;;;6.83
70415;BMP280;57837;52.064;113.478;2023-02-26T08:29:27;93341.59;;;6.81
70415;BMP280;57837;52.064;113.478;2023-02-26T08:32:30;93349.09;;;6.76
70415;BMP280;57837;52.064;113.478;2023-02-26T08:35:34;93354.34;;;6.72
70415;BMP280;57837;52.064;113.478;2023-02-26T08:38:37;93350.63;;;6.73
70415;BMP280;57837;52.064;113.478;2023-02-26T08:41:42;93346.44;;;6.67
70415;BMP280;57837;52.064;113.478;2023-02-26T08:44:46;93356.19;;;6.59
70415;BMP280;57837;52.064;113.478;2023-02-26T08:47:50;93358.75;;;6.47
70415;BMP280;57837;52.064;113.478;2023-02-26T08:50:59;93361.00;;;6.32
70415;BMP280;57837;52.064;113.478;2023-02-26T08:54:02;93365.34;;;6.22
70415;BMP280;57837;52.064;113.478;2023-02-26T08:57:05;93348.75;;;6.11
70415;BMP280;57837;52.064;113.478;2023-02-26T09:00:09;93358.50;;;6.03
70415;BMP280;57837;52.064;113.478;2023-02-26T09:03:12;93360.06;;;6.00
70415;BMP280;57837;52.064;113.478;2023-02-26T09:06:18;93359.44;;;5.96
70415;BMP280;57837;52.064;113.478;2023-02-26T09:09:22;93365.78;;;5.92
70415;BMP280;57837;52.064;113.478;2023-02-26T09:12:26;93357.00;;;5.77
70415;BMP280;57837;52.064;113.478;2023-02-26T09:15:29;93352.22;;;5.62
70415;BMP280;57837;52.064;113.478;2023-02-26T09:18:33;93360.50;;;5.41
70415;BMP280;57837;52.064;113.478;2023-02-26T09:21:37;93356.09;;;5.25
70415;BMP280;57837;52.064;113.478;2023-02-26T09:24:41;93357.38;;;5.17
70415;BMP280;57837;52.064;113.478;2023-02-26T09:27:45;93356.41;;;5.11
70415;BMP280;57837;52.064;113.478;2023-02-26T09:30:53;93374.34;;;4.95
70415;BMP280;57837;52.064;113.478;2023-02-26T09:33:56;93383.06;;;4.65
70415;BMP280;57837;52.064;113.478;2023-02-26T09:37:00;93374.44;;;4.39
70415;BMP280;57837;52.064;113.478;2023-02-26T09:40:03;93378.59;;;4.13
70415;BMP280;57837;52.064;113.478;2023-02-26T09:46:43;93382.19;;;3.76
70415;BMP280;57837;52.064;113.478;2023-02-26T09:49:56;93376.25;;;3.60
70415;BMP280;57837;52.064;113.478;2023-02-26T09:53:11;93378.22;;;3.52
70415;BMP280;57837;52.064;113.478;2023-02-26T09:56:21;93376.50;;;3.45
70415;BMP280;57837;52.064;113.478;2023-02-26T09:59:30;93385.69;;;3.43
70415;BMP280;57837;52.064;113.478;2023-02-26T10:02:59;93390.56;;;3.34
70415;BMP280;57837;52.064;113.478;2023-02-26T10:06:45;93398.00;;;3.25
70415;BMP280;57837;52.064;113.478;2023-02-26T10:12:45;93395.41;;;3.01
70415;BMP280;57837;52.064;113.478;2023-02-26T10:15:52;93397.66;;;2.72
70415;BMP280;57837;52.064;113.478;2023-02-26T10:19:11;93394.69;;;2.74
70415;BMP280;57837;52.064;113.478;2023-02-26T10:26:03;93395.03;;;2.76
70415;BMP280;57837;52.064;113.478;2023-02-26T10:29:14;93404.25;;;2.70
70415;BMP280;57837;52.064;113.478;2023-02-26T10:35:31;93399.34;;;2.52
70415;BMP280;57837;52.064;113.478;2023-02-26T10:38:37;93389.13;;;2.22
70415;BMP280;57837;52.064;113.478;2023-02-26T10:41:41;93391.44;;;2.09
70415;BMP280;57837;52.064;113.478;2023-02-26T10:51:53;93407.25;;;1.56
70415;BMP280;57837;52.064;113.478;2023-02-26T10:58:26;93409.09;;;1.52
70415;BMP280;57837;52.064;113.478;2023-02-26T11:01:30;93411.41;;;1.35
70415;BMP280;57837;52.064;113.478;2023-02-26T11:04:36;93420.66;;;1.12
70415;BMP280;57837;52.064;113.478;2023-02-26T11:07:50;93418.53;;;1.03
70415;BMP280;57837;52.064;113.478;2023-02-26T11:10:56;93416.34;;;1.01
70415;BMP280;57837;52.064;113.478;2023-02-26T11:14:01;93418.25;;;0.83
70415;BMP280;57837;52.064;113.478;2023-02-26T11:17:28;93430.31;;;0.72
70415;BMP280;57837;52.064;113.478;2023-02-26T11:20:40;93424.53;;;0.57
70415;BMP280;57837;52.064;113.478;2023-02-26T11:23:45;93423.50;;;0.44
70415;BMP280;57837;52.064;113.478;2023-02-26T11:26:50;93429.69;;;0.36
70415;BMP280;57837;52.064;113.478;2023-02-26T11:29:59;93421.75;;;0.27
70415;BMP280;57837;52.064;113.478;2023-02-26T11:33:21;93417.78;;;0.08
70415;BMP280;57837;52.064;113.478;2023-02-26T11:36:28;93422.53;;;-0.08
70415;BMP280;57837;52.064;113.478;2023-02-26T11:39:34;93423.63;;;-0.20
70415;BMP280;57837;52.064;113.478;2023-02-26T11:42:48;93426.91;;;-0.19
70415;BMP280;57837;52.064;113.478;2023-02-26T11:46:02;93428.72;;;-0.20
70415;BMP280;57837;52.064;113.478;2023-02-26T11:49:08;93437.06;;;-0.12
70415;BMP280;57837;52.064;113.478;2023-02-26T11:52:28;93428.00;;;-0.13
70415;BMP280;57837;52.064;113.478;2023-02-26T11:55:38;93435.25;;;-0.22
70415;BMP280;57837;52.064;113.478;2023-02-26T11:58:52;93436.34;;;-0.20
70415;BMP280;57837;52.064;113.478;2023-02-26T12:02:24;93431.25;;;-0.16
70415;BMP280;57837;52.064;113.478;2023-02-26T12:05:30;93435.97;;;-0.18
70415;BMP280;57837;52.064;113.478;2023-02-26T12:08:36;93436.69;;;-0.25
70415;BMP280;57837;52.064;113.478;2023-02-26T12:12:02;93438.88;;;-0.34
70415;BMP280;57837;52.064;113.478;2023-02-26T12:15:30;93436.34;;;-0.34
70415;BMP280;57837;52.064;113.478;2023-02-26T12:26:03;93432.69;;;-0.61
70415;BMP280;57837;52.064;113.478;2023-02-26T12:29:29;93432.28;;;-0.74
70415;BMP280;57837;52.064;113.478;2023-02-26T12:32:55;93435.91;;;-0.86
70415;BMP280;57837;52.064;113.478;2023-02-26T12:36:35;93432.63;;;-0.97
70415;BMP280;57837;52.064;113.478;2023-02-26T12:47:33;93460.50;;;-1.04
70415;BMP280;57837;52.064;113.478;2023-02-26T12:53:44;93461.25;;;-1.00
70415;BMP280;57837;52.064;113.478;2023-02-26T13:11:25;93460.47;;;-1.22
70415;BMP280;57837;52.064;113.478;2023-02-26T13:21:15;93499.31;;;-1.14
70415;BMP280;57837;52.064;113.478;2023-02-26T13:25:00;93508.78;;;-1.01
70415;BMP280;57837;52.064;113.478;2023-02-26T13:28:37;93508.06;;;-1.01
70415;BMP280;57837;52.064;113.478;2023-02-26T13:31:46;93516.63;;;-1.27
70415;BMP280;57837;52.064;113.478;2023-02-26T13:34:58;93505.91;;;-1.61
70415;BMP280;57837;52.064;113.478;2023-02-26T13:41:31;93505.31;;;-1.91
70415;BMP280;57837;52.064;113.478;2023-02-26T13:48:47;93507.94;;;-1.84
70415;BMP280;57837;52.064;113.478;2023-02-26T13:51:54;93497.72;;;-1.91
70415;BMP280;57837;52.064;113.478;2023-02-26T13:54:58;93502.78;;;-1.95
70415;BMP280;57837;52.064;113.478;2023-02-26T13:58:16;93496.19;;;-2.03
70415;BMP280;57837;52.064;113.478;2023-02-26T14:01:30;93492.72;;;-1.84
70415;BMP280;57837;52.064;113.478;2023-02-26T14:04:50;93486.13;;;-1.89
70415;BMP280;57837;52.064;113.478;2023-02-26T14:11:05;93483.97;;;-1.87
70415;BMP280;57837;52.064;113.478;2023-02-26T14:18:26;93473.66;;;-1.67
70415;BMP280;57837;52.064;113.478;2023-02-26T14:21:37;93470.72;;;-1.70
70415;BMP280;57837;52.064;113.478;2023-02-26T14:24:51;93482.72;;;-1.66
70415;BMP280;57837;52.064;113.478;2023-02-26T14:28:19;93481.97;;;-1.67
70415;BMP280;57837;52.064;113.478;2023-02-26T14:32:04;93501.53;;;-1.71
70415;BMP280;57837;52.064;113.478;2023-02-26T14:38:24;93507.69;;;-1.69
70415;BMP280;57837;52.064;113.478;2023-02-26T14:41:37;93506.25;;;-1.70
70415;BMP280;57837;52.064;113.478;2023-02-26T14:44:47;93502.28;;;-1.63
70415;BMP280;57837;52.064;113.478;2023-02-26T14:47:51;93514.28;;;-1.57
70415;BMP280;57837;52.064;113.478;2023-02-26T14:51:25;93521.47;;;-1.62
70415;BMP280;57837;52.064;113.478;2023-02-26T15:07:40;93528.53;;;-2.30
70415;BMP280;57837;52.064;113.478;2023-02-26T15:11:09;93530.31;;;-2.34
70415;BMP280;57837;52.064;113.478;2023-02-26T15:24:36;93539.00;;;-2.31
70415;BMP280;57837;52.064;113.478;2023-02-26T15:27:40;93531.13;;;-2.26
70415;BMP280;57837;52.064;113.478;2023-02-26T15:30:46;93534.13;;;-2.14
70415;BMP280;57837;52.064;113.478;2023-02-26T15:33:55;93534.84;;;-2.13
70415;BMP280;57837;52.064;113.478;2023-02-26T15:36:59;93526.47;;;-2.17
70415;BMP280;57837;52.064;113.478;2023-02-26T15:40:04;93532.66;;;-2.15
70415;BMP280;57837;52.064;113.478;2023-02-26T15:43:08;93538.16;;;-2.09
70415;BMP280;57837;52.064;113.478;2023-02-26T15:46:13;93533.22;;;-1.95
70415;BMP280;57837;52.064;113.478;2023-02-26T15:49:25;93534.38;;;-1.85
70415;BMP280;57837;52.064;113.478;2023-02-26T15:52:31;93538.75;;;-1.82
70415;BMP280;57837;52.064;113.478;2023-02-26T15:55:38;93529.69;;;-1.83
70415;BMP280;57837;52.064;113.478;2023-02-26T15:58:49;93532.97;;;-1.79
70415;BMP280;57837;52.064;113.478;2023-02-26T16:01:53;93534.47;;;-1.75
70415;BMP280;57837;52.064;113.478;2023-02-26T16:04:57;93535.66;;;-1.54
70415;BMP280;57837;52.064;113.478;2023-02-26T16:08:01;93547.31;;;-1.50
70415;BMP280;57837;52.064;113.478;2023-02-26T16:11:07;93541.84;;;-1.52
70415;BMP280;57837;52.064;113.478;2023-02-26T16:14:17;93539.97;;;-1.62
70415;BMP280;57837;52.064;113.478;2023-02-26T16:17:26;93532.34;;;-1.65
70415;BMP280;57837;52.064;113.478;2023-02-26T16:20:37;93522.97;;;-1.58
70415;BMP280;57837;52.064;113.478;2023-02-26T16:23:49;93525.56;;;-1.51
70415;BMP280;57837;52.064;113.478;2023-02-26T16:27:01;93518.25;;;-1.59
70415;BMP280;57837;52.064;113.478;2023-02-26T16:30:17;93521.47;;;-1.66
70415;BMP280;57837;52.064;113.478;2023-02-26T16:33:24;93521.47;;;-1.62
70415;BMP280;57837;52.064;113.478;2023-02-26T16:36:39;93519.38;;;-1.53
70415;BMP280;57837;52.064;113.478;2023-02-26T16:39:43;93518.66;;;-1.50
70415;BMP280;57837;52.064;113.478;2023-02-26T16:45:55;93512.91;;;-1.44
70415;BMP280;57837;52.064;113.478;2023-02-26T16:49:19;93523.47;;;-1.35
70415;BMP280;57837;52.064;113.478;2023-02-26T16:52:25;93528.13;;;-1.47
70415;BMP280;57837;52.064;113.478;2023-02-26T16:55:30;93527.69;;;-1.56
70415;BMP280;57837;52.064;113.478;2023-02-26T16:58:35;93532.41;;;-1.55
70415;BMP280;57837;52.064;113.478;2023-02-26T17:01:57;93533.91;;;-1.47
70415;BMP280;57837;52.064;113.478;2023-02-26T17:05:23;93526.25;;;-1.54
70415;BMP280;57837;52.064;113.478;2023-02-26T17:08:32;93539.34;;;-1.48
70415;BMP280;57837;52.064;113.478;2023-02-26T17:11:40;93533.94;;;-1.43
70415;BMP280;57837;52.064;113.478;2023-02-26T17:14:52;93536.47;;;-1.43
70415;BMP280;57837;52.064;113.478;2023-02-26T17:17:56;93531.72;;;-1.52
70415;BMP280;57837;52.064;113.478;2023-02-26T17:21:01;93546.53;;;-1.57
70415;BMP280;57837;52.064;113.478;2023-02-26T17:24:06;93543.22;;;-1.61
70415;BMP280;57837;52.064;113.478;2023-02-26T17:27:15;93544.69;;;-1.60
70415;BMP280;57837;52.064;113.478;2023-02-26T17:30:22;93540.63;;;-1.72
70415;BMP280;57837;52.064;113.478;2023-02-26T17:33:33;93545.19;;;-1.92
70415;BMP280;57837;52.064;113.478;2023-02-26T17:36:37;93536.75;;;-2.03
70415;BMP280;57837;52.064;113.478;2023-02-26T17:39:42;93542.63;;;-1.95
70415;BMP280;57837;52.064;113.478;2023-02-26T17:42:46;93548.78;;;-1.93
70415;BMP280;57837;52.064;113.478;2023-02-26T17:45:50;93541.41;;;-2.09
70415;BMP280;57837;52.064;113.478;2023-02-26T17:48:53;93549.41;;;-2.07
70415;BMP280;57837;52.064;113.478;2023-02-26T17:51:57;93554.13;;;-2.05
70415;BMP280;57837;52.064;113.478;2023-02-26T17:55:00;93561.00;;;-2.06
70415;BMP280;57837;52.064;113.478;2023-02-26T17:58:05;93565.44;;;-2.33
70415;BMP280;57837;52.064;113.478;2023-02-26T18:01:09;93580.03;;;-2.56
70415;BMP280;57837;52.064;113.478;2023-02-26T18:04:12;93580.38;;;-2.87
70415;BMP280;57837;52.064;113.478;2023-02-26T18:07:18;93575.03;;;-3.09
70415;BMP280;57837;52.064;113.478;2023-02-26T18:10:22;93582.00;;;-3.25
70415;BMP280;57837;52.064;113.478;2023-02-26T18:13:27;93583.72;;;-3.33
70415;BMP280;57837;52.064;113.478;2023-02-26T18:16:33;93584.34;;;-3.39
70415;BMP280;57837;52.064;113.478;2023-02-26T18:19:41;93591.84;;;-3.46
70415;BMP280;57837;52.064;113.478;2023-02-26T18:22:45;93606.19;;;-3.50
70415;BMP280;57837;52.064;113.478;2023-02-26T18:25:52;93603.59;;;-3.54
70415;BMP280;57837;52.064;113.478;2023-02-26T18:28:56;93598.56;;;-3.54
70415;BMP280;57837;52.064;113.478;2023-02-26T18:32:00;93603.59;;;-3.54
70415;BMP280;57837;52.064;113.478;2023-02-26T18:35:05;93603.75;;;-3.47
70415;BMP280;57837;52.064;113.478;2023-02-26T18:38:10;93611.22;;;-3.31
70415;BMP280;57837;52.064;113.478;2023-02-26T18:41:14;93604.72;;;-3.06
70415;BMP280;57837;52.064;113.478;2023-02-26T18:44:19;93623.78;;;-2.85
70415;BMP280;57837;52.064;113.478;2023-02-26T18:47:22;93625.41;;;-2.74
70415;BMP280;57837;52.064;113.478;2023-02-26T18:50:26;93623.09;;;-2.56
70415;BMP280;57837;52.064;113.478;2023-02-26T18:53:30;93628.59;;;-2.50
70415;BMP280;57837;52.064;113.478;2023-02-26T18:56:36;93624.06;;;-2.34
70415;BMP280;57837;52.064;113.478;2023-02-26T18:59:40;93621.44;;;-2.08
70415;BMP280;57837;52.064;113.478;2023-02-26T19:02:44;93620.34;;;-2.10
70415;BMP280;57837;52.064;113.478;2023-02-26T19:06:04;93623.63;;;-2.40
70415;BMP280;57837;52.064;113.478;2023-02-26T19:09:10;93619.13;;;-2.83
70415;BMP280;57837;52.064;113.478;2023-02-26T19:12:14;93624.69;;;-2.97
70415;BMP280;57837;52.064;113.478;2023-02-26T19:15:22;93619.16;;;-3.06
70415;BMP280;57837;52.064;113.478;2023-02-26T19:18:26;93646.13;;;-2.91
70415;BMP280;57837;52.064;113.478;2023-02-26T19:21:31;93641.25;;;-3.03
70415;BMP280;57837;52.064;113.478;2023-02-26T19:24:36;93646.28;;;-3.29
70415;BMP280;57837;52.064;113.478;2023-02-26T19:27:40;93652.41;;;-3.30
70415;BMP280;57837;52.064;113.478;2023-02-26T19:30:43;93659.38;;;-3.47
70415;BMP280;57837;52.064;113.478;2023-02-26T19:33:46;93657.19;;;-3.48
70415;BMP280;57837;52.064;113.478;2023-02-26T19:36:49;93674.41;;;-3.35
70415;BMP280;57837;52.064;113.478;2023-02-26T19:39:53;93675.22;;;-3.27
70415;BMP280;57837;52.064;113.478;2023-02-26T19:42:56;93678.47;;;-3.26
70415;BMP280;57837;52.064;113.478;2023-02-26T19:45:59;93680.03;;;-3.45
70415;BMP280;57837;52.064;113.478;2023-02-26T19:49:03;93683.66;;;-3.65
70415;BMP280;57837;52.064;113.478;2023-02-26T19:52:08;93699.91;;;-3.85
70415;BMP280;57837;52.064;113.478;2023-02-26T19:55:12;93690.63;;;-3.97
70415;BMP280;57837;52.064;113.478;2023-02-26T19:58:16;93691.13;;;-3.91
70415;BMP280;57837;52.064;113.478;2023-02-26T20:01:21;93695.09;;;-3.90
70415;BMP280;57837;52.064;113.478;2023-02-26T20:04:25;93705.78;;;-3.97
70415;BMP280;57837;52.064;113.478;2023-02-26T20:07:29;93703.34;;;-3.93
70415;BMP280;57837;52.064;113.478;2023-02-26T20:10:33;93710.66;;;-3.69
70415;BMP280;57837;52.064;113.478;2023-02-26T20:13:36;93710.81;;;-3.39
70415;BMP280;57837;52.064;113.478;2023-02-26T20:16:41;93723.66;;;-3.28